createdAt,value
2017-03-22T00:00:43.405Z,5.75
2017-03-22T00:01:41.640Z,5.65
2017-03-22T00:02:39.959Z,6.67
2017-03-22T00:03:38.962Z,6.77
2017-03-22T00:04:37.233Z,6.35
2017-03-22T00:05:36.637Z,6.42
2017-03-22T00:06:34.989Z,6.87
2017-03-22T00:07:33.272Z,7.18
2017-03-22T00:08:31.882Z,6.43
2017-03-22T00:09:30.130Z,6.27
2017-03-22T00:10:28.421Z,8.17
2017-03-22T00:11:26.688Z,6.45
2017-03-22T00:12:24.961Z,6.35
2017-03-22T00:13:23.211Z,6.75
2017-03-22T00:14:22.289Z,6.97
2017-03-22T00:15:20.548Z,7.97
2017-03-22T00:16:18.861Z,6.13
2017-03-22T00:17:17.104Z,6.43
2017-03-22T00:18:15.393Z,7.23
2017-03-22T00:19:13.653Z,6.45
2017-03-22T00:20:11.938Z,6.70
2017-03-22T00:21:10.228Z,7.45
2017-03-22T00:22:08.557Z,7.92
2017-03-22T00:23:06.818Z,6.98
2017-03-22T00:24:05.137Z,6.85
2017-03-22T00:25:03.427Z,6.85
2017-03-22T00:26:01.701Z,8.73
2017-03-22T00:26:59.989Z,8.68
2017-03-22T00:27:58.234Z,6.53
2017-03-22T00:28:56.534Z,6.85
2017-03-22T00:29:54.817Z,6.73
2017-03-22T00:30:53.108Z,7.25
2017-03-22T00:31:52.417Z,7.10
2017-03-22T00:32:50.724Z,7.05
2017-03-22T00:33:48.980Z,6.50
2017-03-22T00:34:47.245Z,5.82
2017-03-22T00:35:45.500Z,8.07
2017-03-22T00:36:43.769Z,6.03
2017-03-22T00:37:42.036Z,6.18
2017-03-22T00:38:40.300Z,5.75
2017-03-22T00:39:38.567Z,6.37
2017-03-22T00:40:36.996Z,6.93
2017-03-22T00:41:35.272Z,8.85
2017-03-22T00:42:33.578Z,7.10
2017-03-22T00:43:32.225Z,6.78
2017-03-22T00:44:30.821Z,6.37
2017-03-22T00:45:29.064Z,6.23
2017-03-22T00:46:27.311Z,6.82
2017-03-22T00:47:25.559Z,6.12
2017-03-22T00:48:23.849Z,6.50
2017-03-22T00:49:22.105Z,6.85
2017-03-22T00:50:20.377Z,6.32
2017-03-22T00:51:18.617Z,7.05
2017-03-22T00:52:16.914Z,7.97
2017-03-22T00:53:15.909Z,7.95
2017-03-22T00:54:14.905Z,6.43
2017-03-22T00:55:13.233Z,9.12
2017-03-22T00:56:11.513Z,8.23
2017-03-22T00:57:10.520Z,8.28
2017-03-22T00:58:08.786Z,7.10
2017-03-22T00:59:07.050Z,6.93
2017-03-22T01:00:05.381Z,7.17
2017-03-22T01:01:03.997Z,10.62
2017-03-22T01:02:02.277Z,9.38
2017-03-22T01:03:00.577Z,8.83
2017-03-22T01:03:58.882Z,6.95
2017-03-22T01:04:57.153Z,8.05
2017-03-22T01:05:55.465Z,8.93
2017-03-22T01:06:54.096Z,7.12
2017-03-22T01:07:52.362Z,8.70
2017-03-22T01:08:50.647Z,6.95
2017-03-22T01:09:48.976Z,7.05
2017-03-22T01:10:47.261Z,8.87
2017-03-22T01:11:45.541Z,8.75
2017-03-22T01:12:43.814Z,8.13
2017-03-22T01:13:42.064Z,6.65
2017-03-22T01:14:40.337Z,11.05
2017-03-22T01:15:38.589Z,7.52
2017-03-22T01:16:36.843Z,8.43
2017-03-22T01:17:35.277Z,8.12
2017-03-22T01:18:33.801Z,10.20
2017-03-22T01:19:32.712Z,7.68
2017-03-22T01:20:30.988Z,7.72
2017-03-22T01:21:29.246Z,8.92
2017-03-22T01:22:27.508Z,7.63
2017-03-22T01:23:25.784Z,7.67
2017-03-22T01:24:24.061Z,7.82
2017-03-22T01:25:22.309Z,7.23
2017-03-22T01:26:20.568Z,8.17
2017-03-22T01:27:18.841Z,7.12
2017-03-22T01:28:17.109Z,6.60
2017-03-22T01:29:16.125Z,8.18
2017-03-22T01:30:14.406Z,7.13
2017-03-22T01:31:13.468Z,6.60
2017-03-22T01:32:11.733Z,6.80
2017-03-22T01:33:10.006Z,8.43
2017-03-22T01:34:08.271Z,7.32
2017-03-22T01:35:06.582Z,7.25
2017-03-22T01:36:05.110Z,8.32
2017-03-22T01:37:03.421Z,8.25
2017-03-22T01:38:00.910Z,7.78
2017-03-22T01:38:59.217Z,8.68
2017-03-22T01:39:57.473Z,7.87
2017-03-22T01:40:55.748Z,8.10
2017-03-22T01:41:54.032Z,6.82
2017-03-22T01:42:52.297Z,9.25
2017-03-22T01:43:50.584Z,8.53
2017-03-22T01:44:48.828Z,9.72
2017-03-22T01:45:47.118Z,8.00
2017-03-22T01:46:45.361Z,7.57
2017-03-22T01:47:43.658Z,8.58
2017-03-22T01:48:41.958Z,8.08
2017-03-22T01:49:40.203Z,8.85
2017-03-22T01:50:38.449Z,9.70
2017-03-22T01:51:36.693Z,8.67
2017-03-22T01:52:34.985Z,10.58
2017-03-22T01:53:33.530Z,10.13
2017-03-22T01:54:32.508Z,11.03
2017-03-22T01:55:31.492Z,11.30
2017-03-22T01:56:29.758Z,11.73
2017-03-22T01:57:28.737Z,11.32
2017-03-22T01:58:26.989Z,12.80
2017-03-22T01:59:26.026Z,10.17
2017-03-22T02:00:24.316Z,11.13
2017-03-22T02:01:23.368Z,12.12
2017-03-22T02:02:21.634Z,13.75
2017-03-22T02:03:19.894Z,9.85
2017-03-22T02:04:18.129Z,10.22
2017-03-22T02:05:16.429Z,10.73
2017-03-22T02:06:14.677Z,10.93
2017-03-22T02:07:12.924Z,11.05
2017-03-22T02:08:11.946Z,11.72
2017-03-22T02:09:10.239Z,13.23
2017-03-22T02:10:09.245Z,11.65
2017-03-22T02:11:07.957Z,10.03
2017-03-22T02:12:06.204Z,10.27
2017-03-22T02:13:04.514Z,11.05
2017-03-22T02:14:02.796Z,10.68
2017-03-22T02:15:01.081Z,10.45
2017-03-22T02:15:59.316Z,11.25
2017-03-22T02:16:57.630Z,12.77
2017-03-22T02:17:56.613Z,14.35
2017-03-22T02:18:54.877Z,11.23
2017-03-22T02:19:53.107Z,15.13
2017-03-22T02:20:51.453Z,12.63
2017-03-22T02:21:49.704Z,11.15
2017-03-22T02:22:47.986Z,11.80
2017-03-22T02:23:46.266Z,13.55
2017-03-22T02:24:44.584Z,14.63
2017-03-22T02:25:42.845Z,12.32
2017-03-22T02:26:41.081Z,12.17
2017-03-22T02:27:39.329Z,12.28
2017-03-22T02:28:37.833Z,13.87
2017-03-22T02:29:36.121Z,13.27
2017-03-22T02:30:34.392Z,12.75
2017-03-22T02:31:32.640Z,13.18
2017-03-22T02:32:31.374Z,14.42
2017-03-22T02:33:29.652Z,12.72
2017-03-22T02:34:27.892Z,14.28
2017-03-22T02:35:26.144Z,13.87
2017-03-22T02:36:24.417Z,12.17
2017-03-22T02:37:22.682Z,17.15
2017-03-22T02:38:20.945Z,15.35
2017-03-22T02:39:19.222Z,12.18
2017-03-22T02:40:17.489Z,12.93
2017-03-22T02:41:15.753Z,13.55
2017-03-22T02:42:14.009Z,13.32
2017-03-22T02:43:12.277Z,13.73
2017-03-22T02:44:10.567Z,14.33
2017-03-22T02:45:08.825Z,15.02
2017-03-22T02:46:07.381Z,14.13
2017-03-22T02:47:05.660Z,13.92
2017-03-22T02:48:03.889Z,14.93
2017-03-22T02:49:02.152Z,14.57
2017-03-22T02:50:01.170Z,15.47
2017-03-22T02:50:59.435Z,16.02
2017-03-22T02:51:57.735Z,14.95
2017-03-22T02:52:56.013Z,15.43
2017-03-22T02:53:54.285Z,15.90
2017-03-22T02:54:52.555Z,15.60
2017-03-22T02:55:51.568Z,14.35
2017-03-22T02:56:49.820Z,15.97
2017-03-22T02:57:48.097Z,14.68
2017-03-22T02:58:46.357Z,14.90
2017-03-22T02:59:45.387Z,16.12
2017-03-22T03:00:43.626Z,14.52
2017-03-22T03:01:41.968Z,15.00
2017-03-22T03:02:40.235Z,15.55
2017-03-22T03:03:38.823Z,17.08
2017-03-22T03:04:37.115Z,15.18
2017-03-22T03:05:35.382Z,14.45
2017-03-22T03:06:33.681Z,15.98
2017-03-22T03:07:31.953Z,15.52
2017-03-22T03:08:30.246Z,15.82
2017-03-22T03:09:29.276Z,16.32
2017-03-22T03:10:27.529Z,14.47
2017-03-22T03:11:25.768Z,15.62
2017-03-22T03:12:24.077Z,15.72
2017-03-22T03:13:22.361Z,16.13
2017-03-22T03:14:20.609Z,15.10
2017-03-22T03:15:19.150Z,13.92
2017-03-22T03:16:17.409Z,13.08
2017-03-22T03:17:15.661Z,13.98
2017-03-22T03:18:14.050Z,14.75
2017-03-22T03:19:12.302Z,13.15
2017-03-22T03:20:11.285Z,15.32
2017-03-22T03:21:10.286Z,15.45
2017-03-22T03:22:08.559Z,14.38
2017-03-22T03:23:06.808Z,13.70
2017-03-22T03:24:05.061Z,14.55
2017-03-22T03:25:03.357Z,14.80
2017-03-22T03:26:01.598Z,15.68
2017-03-22T03:26:59.858Z,16.60
2017-03-22T03:27:58.117Z,18.03
2017-03-22T03:28:56.362Z,17.85
2017-03-22T03:29:54.621Z,21.53
2017-03-22T03:30:52.843Z,18.55
2017-03-22T03:31:51.077Z,18.47
2017-03-22T03:32:49.364Z,17.83
2017-03-22T03:33:48.458Z,18.05
2017-03-22T03:34:46.692Z,17.18
2017-03-22T03:35:44.953Z,16.73
2017-03-22T03:36:43.205Z,16.72
2017-03-22T03:37:41.453Z,17.60
2017-03-22T03:38:39.728Z,17.57
2017-03-22T03:39:37.994Z,17.52
2017-03-22T03:40:36.264Z,17.25
2017-03-22T03:41:34.632Z,17.17
2017-03-22T03:42:32.917Z,18.08
2017-03-22T03:43:31.218Z,17.10
2017-03-22T03:44:29.493Z,18.37
2017-03-22T03:45:28.882Z,18.52
2017-03-22T03:46:27.125Z,18.48
2017-03-22T03:47:25.465Z,17.02
2017-03-22T03:48:23.709Z,17.83
2017-03-22T03:49:21.953Z,19.93
2017-03-22T03:50:20.221Z,18.57
2017-03-22T03:51:18.457Z,19.32
2017-03-22T03:52:16.705Z,19.25
2017-03-22T03:53:14.966Z,19.10
2017-03-22T03:54:13.230Z,19.78
2017-03-22T03:55:11.509Z,19.95
2017-03-22T03:56:10.516Z,19.48
2017-03-22T03:57:08.748Z,21.97
2017-03-22T03:58:06.984Z,19.92
2017-03-22T03:59:05.225Z,21.43
2017-03-22T04:00:03.464Z,19.72
2017-03-22T04:01:01.708Z,19.88
2017-03-22T04:01:59.970Z,18.50
2017-03-22T04:02:58.205Z,19.32
2017-03-22T04:03:56.461Z,21.35
2017-03-22T04:04:54.722Z,23.02
2017-03-22T04:05:53.065Z,21.47
2017-03-22T04:06:51.346Z,22.18
2017-03-22T04:07:49.590Z,20.92
2017-03-22T04:08:47.903Z,22.13
2017-03-22T04:09:46.138Z,23.85
2017-03-22T04:10:44.712Z,22.23
2017-03-22T04:11:42.949Z,21.58
2017-03-22T04:12:41.202Z,24.20
2017-03-22T04:13:39.446Z,23.77
2017-03-22T04:14:37.700Z,22.80
2017-03-22T04:15:35.940Z,22.52
2017-03-22T04:16:34.176Z,22.20
2017-03-22T04:17:32.434Z,24.37
2017-03-22T04:18:30.688Z,22.03
2017-03-22T04:19:29.689Z,22.17
2017-03-22T04:20:27.948Z,21.57
2017-03-22T04:21:26.223Z,21.47
2017-03-22T04:22:24.497Z,21.72
2017-03-22T04:23:22.746Z,23.07
2017-03-22T04:24:21.047Z,24.07
2017-03-22T04:25:19.330Z,25.33
2017-03-22T04:26:18.333Z,23.27
2017-03-22T04:27:16.578Z,24.75
2017-03-22T04:28:14.818Z,25.57
2017-03-22T04:29:13.010Z,23.32
2017-03-22T04:30:11.226Z,24.62
2017-03-22T04:31:09.485Z,24.60
2017-03-22T04:32:07.745Z,23.03
2017-03-22T04:33:05.983Z,22.12
2017-03-22T04:34:04.228Z,24.02
2017-03-22T04:35:02.445Z,22.63
2017-03-22T04:36:00.672Z,24.35
2017-03-22T04:36:59.639Z,25.38
2017-03-22T04:37:57.865Z,25.60
2017-03-22T04:38:56.865Z,23.63
2017-03-22T04:39:55.082Z,26.75
2017-03-22T04:40:53.319Z,25.17
2017-03-22T04:41:51.548Z,23.10
2017-03-22T04:42:49.782Z,24.57
2017-03-22T04:43:48.057Z,22.70
2017-03-22T04:44:46.280Z,22.98
2017-03-22T04:45:45.308Z,24.18
2017-03-22T04:46:43.529Z,22.37
2017-03-22T04:47:41.776Z,22.73
2017-03-22T04:48:40.007Z,23.57
2017-03-22T04:49:38.233Z,23.35
2017-03-22T04:50:37.170Z,22.85
2017-03-22T04:51:35.385Z,23.67
2017-03-22T04:52:33.621Z,22.32
2017-03-22T04:53:31.845Z,24.35
2017-03-22T04:54:30.076Z,22.77
2017-03-22T04:55:28.301Z,22.43
2017-03-22T04:56:26.517Z,24.92
2017-03-22T04:57:24.752Z,22.82
2017-03-22T04:58:22.969Z,23.43
2017-03-22T04:59:21.210Z,24.02
2017-03-22T05:00:19.441Z,26.75
2017-03-22T05:01:17.695Z,22.48
2017-03-22T05:02:15.923Z,24.73
2017-03-22T05:03:14.141Z,24.48
2017-03-22T05:04:12.386Z,24.30
2017-03-22T05:05:10.598Z,22.62
2017-03-22T05:06:08.832Z,22.50
2017-03-22T05:07:07.046Z,24.15
2017-03-22T05:08:05.252Z,27.83
2017-03-22T05:09:04.042Z,23.15
2017-03-22T05:10:02.265Z,26.18
2017-03-22T05:11:00.502Z,24.35
2017-03-22T05:11:58.736Z,21.02
2017-03-22T05:12:56.930Z,23.93
2017-03-22T05:13:55.146Z,24.13
2017-03-22T05:14:53.369Z,24.78
2017-03-22T05:15:51.553Z,24.08
2017-03-22T05:16:49.761Z,24.87
2017-03-22T05:17:47.978Z,24.12
2017-03-22T05:18:46.201Z,22.35
2017-03-22T05:19:44.411Z,23.27
2017-03-22T05:20:42.635Z,21.65
2017-03-22T05:21:40.860Z,23.00
2017-03-22T05:22:39.075Z,21.88
2017-03-22T05:23:37.337Z,23.95
2017-03-22T05:24:36.300Z,24.85
2017-03-22T05:25:34.764Z,23.05
2017-03-22T05:26:32.994Z,24.92
2017-03-22T05:27:31.196Z,22.68
2017-03-22T05:28:29.477Z,21.93
2017-03-22T05:29:27.734Z,24.37
2017-03-22T05:30:26.796Z,22.40
2017-03-22T05:31:25.041Z,23.67
2017-03-22T05:32:23.272Z,23.07
2017-03-22T05:33:21.575Z,22.27
2017-03-22T05:34:19.832Z,22.53
2017-03-22T05:35:18.104Z,22.57
2017-03-22T05:36:16.368Z,20.45
2017-03-22T05:37:14.598Z,20.93
2017-03-22T05:38:12.893Z,23.30
2017-03-22T05:39:11.149Z,22.37
2017-03-22T05:40:09.437Z,22.55
2017-03-22T05:41:07.701Z,28.58
2017-03-22T05:42:05.942Z,24.30
2017-03-22T05:43:04.169Z,23.22
2017-03-22T05:44:02.414Z,21.15
2017-03-22T05:45:00.669Z,25.03
2017-03-22T05:45:58.961Z,24.32
2017-03-22T05:46:57.238Z,23.00
2017-03-22T05:47:55.514Z,23.77
2017-03-22T05:48:53.757Z,24.58
2017-03-22T05:49:52.037Z,25.63
2017-03-22T05:50:50.265Z,25.58
2017-03-22T05:51:48.540Z,22.90
2017-03-22T05:52:46.799Z,26.87
2017-03-22T05:53:45.061Z,25.37
2017-03-22T05:54:43.379Z,27.92
2017-03-22T05:55:41.616Z,23.70
2017-03-22T05:56:40.149Z,24.57
2017-03-22T05:57:38.405Z,27.42
2017-03-22T05:58:36.661Z,28.58
2017-03-22T05:59:34.974Z,25.67
2017-03-22T06:00:33.204Z,29.98
2017-03-22T06:01:31.469Z,29.75
2017-03-22T06:02:29.708Z,26.97
2017-03-22T06:03:27.939Z,28.30
2017-03-22T06:04:26.217Z,26.43
2017-03-22T06:05:24.432Z,30.48
2017-03-22T06:06:23.408Z,28.05
2017-03-22T06:07:21.679Z,27.97
2017-03-22T06:08:19.969Z,27.73
2017-03-22T06:09:18.203Z,28.55
2017-03-22T06:10:16.452Z,32.00
2017-03-22T06:11:14.691Z,28.88
2017-03-22T06:12:13.487Z,27.52
2017-03-22T06:13:11.714Z,28.15
2017-03-22T06:14:09.962Z,27.38
2017-03-22T06:15:08.218Z,30.62
2017-03-22T06:16:07.903Z,28.20
2017-03-22T06:17:06.890Z,30.13
2017-03-22T06:18:05.166Z,29.48
2017-03-22T06:19:04.364Z,30.10
2017-03-22T06:20:02.647Z,32.97
2017-03-22T06:21:00.877Z,30.85
2017-03-22T06:21:59.904Z,29.17
2017-03-22T06:22:58.197Z,34.13
2017-03-22T06:23:56.431Z,29.30
2017-03-22T06:24:54.681Z,32.38
2017-03-22T06:25:52.950Z,32.40
2017-03-22T06:26:51.180Z,32.87
2017-03-22T06:27:49.464Z,35.87
2017-03-22T06:28:47.717Z,33.55
2017-03-22T06:29:46.676Z,30.40
2017-03-22T06:30:44.860Z,36.30
2017-03-22T06:31:43.067Z,31.53
2017-03-22T06:32:41.261Z,34.05
2017-03-22T06:33:39.538Z,32.50
2017-03-22T06:34:37.761Z,33.98
2017-03-22T06:35:35.962Z,34.10
2017-03-22T06:36:34.186Z,31.38
2017-03-22T06:37:32.392Z,33.25
2017-03-22T06:38:30.585Z,33.55
2017-03-22T06:39:28.816Z,34.40
2017-03-22T06:40:27.773Z,33.22
2017-03-22T06:41:26.011Z,35.12
2017-03-22T06:42:24.957Z,31.92
2017-03-22T06:43:23.165Z,34.63
2017-03-22T06:44:21.391Z,33.52
2017-03-22T06:45:19.658Z,32.70
2017-03-22T06:46:17.876Z,30.67
2017-03-22T06:47:16.100Z,32.23
2017-03-22T06:48:14.322Z,29.57
2017-03-22T06:49:12.554Z,28.85
2017-03-22T06:50:11.481Z,33.00
2017-03-22T06:51:09.701Z,30.68
2017-03-22T06:52:08.654Z,33.75
2017-03-22T06:53:06.865Z,29.37
2017-03-22T06:54:05.131Z,29.90
2017-03-22T06:55:03.310Z,34.58
2017-03-22T06:56:01.532Z,33.02
2017-03-22T06:56:59.761Z,32.27
2017-03-22T06:57:57.985Z,33.78
2017-03-22T06:58:56.938Z,33.07
2017-03-22T06:59:55.189Z,33.30
2017-03-22T07:00:53.388Z,32.02
2017-03-22T07:01:51.595Z,34.22
2017-03-22T07:02:49.836Z,32.15
2017-03-22T07:03:48.053Z,29.53
2017-03-22T07:04:46.306Z,33.68
2017-03-22T07:05:44.513Z,38.88
2017-03-22T07:06:42.742Z,31.08
2017-03-22T07:07:40.969Z,34.30
2017-03-22T07:08:39.213Z,32.10
2017-03-22T07:09:37.436Z,35.03
2017-03-22T07:10:35.689Z,33.93
2017-03-22T07:11:33.920Z,32.92
2017-03-22T07:12:32.224Z,35.00
2017-03-22T07:13:30.609Z,31.78
2017-03-22T07:14:28.867Z,32.75
2017-03-22T07:15:27.070Z,34.35
2017-03-22T07:16:25.299Z,34.15
2017-03-22T07:17:23.553Z,31.75
2017-03-22T07:18:21.821Z,31.53
2017-03-22T07:19:20.062Z,36.73
2017-03-22T07:20:18.329Z,33.98
2017-03-22T07:21:16.551Z,31.72
2017-03-22T07:22:14.793Z,33.73
2017-03-22T07:23:13.020Z,32.38
2017-03-22T07:24:11.282Z,36.50
2017-03-22T07:25:09.649Z,34.17
2017-03-22T07:26:07.912Z,33.95
2017-03-22T07:27:06.120Z,34.02
2017-03-22T07:28:04.345Z,37.80
2017-03-22T07:29:02.594Z,33.70
2017-03-22T07:30:00.854Z,35.73
2017-03-22T07:30:59.864Z,37.43
2017-03-22T07:31:58.120Z,35.50
2017-03-22T07:32:56.363Z,31.43
2017-03-22T07:33:54.597Z,36.18
2017-03-22T07:34:52.849Z,37.33
2017-03-22T07:35:51.062Z,35.47
2017-03-22T07:36:50.273Z,33.42
2017-03-22T07:37:48.532Z,31.58
2017-03-22T07:38:46.766Z,31.48
2017-03-22T07:39:44.989Z,34.52
2017-03-22T07:40:43.196Z,33.08
2017-03-22T07:41:41.433Z,35.85
2017-03-22T07:42:39.631Z,31.13
2017-03-22T07:43:37.858Z,33.45
2017-03-22T07:44:36.089Z,32.82
2017-03-22T07:45:34.365Z,33.22
2017-03-22T07:46:32.634Z,34.03
2017-03-22T07:47:30.862Z,37.28
2017-03-22T07:48:29.825Z,36.98
2017-03-22T07:49:28.073Z,30.48
2017-03-22T07:50:26.321Z,32.68
2017-03-22T07:51:24.578Z,34.82
2017-03-22T07:52:22.825Z,36.25
2017-03-22T07:53:21.009Z,34.55
2017-03-22T07:54:19.240Z,34.23
2017-03-22T07:55:17.509Z,33.07
2017-03-22T07:56:16.476Z,34.82
2017-03-22T07:57:14.686Z,37.77
2017-03-22T07:58:12.918Z,34.50
2017-03-22T07:59:11.901Z,34.73
2017-03-22T08:00:10.120Z,33.15
2017-03-22T08:01:08.341Z,34.13
2017-03-22T08:02:06.557Z,31.58
2017-03-22T08:03:04.778Z,35.10
2017-03-22T08:04:03.004Z,30.45
2017-03-22T08:05:01.254Z,31.10
2017-03-22T08:05:59.485Z,32.53
2017-03-22T08:06:57.729Z,32.88
2017-03-22T08:07:57.889Z,32.43
2017-03-22T08:08:56.092Z,33.63
2017-03-22T08:09:54.277Z,29.48
2017-03-22T08:10:52.513Z,33.00
2017-03-22T08:11:50.708Z,29.55
2017-03-22T08:12:48.953Z,30.28
2017-03-22T08:13:47.170Z,32.12
2017-03-22T08:14:45.728Z,31.57
2017-03-22T08:15:43.953Z,33.55
2017-03-22T08:16:42.160Z,35.68
2017-03-22T08:17:41.119Z,38.08
2017-03-22T08:18:40.089Z,35.92
2017-03-22T08:19:38.334Z,30.35
2017-03-22T08:20:36.565Z,31.53
2017-03-22T08:21:34.805Z,33.45
2017-03-22T08:22:33.790Z,31.10
2017-03-22T08:23:31.982Z,31.17
2017-03-22T08:24:30.233Z,36.22
2017-03-22T08:25:28.479Z,32.28
2017-03-22T08:26:26.696Z,31.35
2017-03-22T08:27:24.929Z,28.37
2017-03-22T08:28:23.178Z,30.55
2017-03-22T08:29:21.413Z,31.22
2017-03-22T08:30:19.709Z,28.48
2017-03-22T08:31:18.693Z,31.15
2017-03-22T08:32:16.928Z,35.25
2017-03-22T08:33:15.163Z,29.50
2017-03-22T08:34:13.412Z,32.12
2017-03-22T08:35:11.646Z,31.20
2017-03-22T08:36:09.907Z,33.97
2017-03-22T08:37:08.895Z,29.80
2017-03-22T08:38:07.873Z,31.90
2017-03-22T08:39:06.138Z,33.32
2017-03-22T08:40:04.384Z,31.80
2017-03-22T08:41:03.337Z,35.63
2017-03-22T08:42:01.619Z,34.38
2017-03-22T08:42:59.865Z,32.45
2017-03-22T08:43:58.183Z,30.57
2017-03-22T08:44:56.416Z,27.80
2017-03-22T08:45:54.665Z,33.45
2017-03-22T08:46:52.947Z,28.50
2017-03-22T08:47:51.205Z,29.68
2017-03-22T08:48:49.413Z,29.32
2017-03-22T08:49:47.624Z,32.47
2017-03-22T08:50:46.249Z,29.05
2017-03-22T08:51:44.484Z,29.88
2017-03-22T08:52:42.717Z,29.83
2017-03-22T08:53:41.016Z,27.47
2017-03-22T08:54:39.313Z,27.02
2017-03-22T08:55:37.553Z,27.52
2017-03-22T08:56:35.781Z,26.97
2017-03-22T08:57:34.033Z,25.70
2017-03-22T08:58:33.000Z,26.87
2017-03-22T08:59:31.240Z,27.17
2017-03-22T09:00:29.517Z,27.77
2017-03-22T09:01:27.781Z,25.93
2017-03-22T09:02:26.494Z,26.00
2017-03-22T09:03:24.836Z,24.68
2017-03-22T09:04:23.097Z,25.47
2017-03-22T09:05:21.365Z,25.77
2017-03-22T09:06:19.598Z,25.43
2017-03-22T09:07:17.881Z,28.07
2017-03-22T09:08:16.136Z,27.53
2017-03-22T09:09:14.404Z,28.88
2017-03-22T09:10:12.728Z,25.02
2017-03-22T09:11:11.005Z,30.68
2017-03-22T09:12:09.673Z,26.95
2017-03-22T09:13:07.928Z,25.20
2017-03-22T09:14:06.912Z,25.75
2017-03-22T09:15:05.145Z,25.75
2017-03-22T09:16:03.409Z,25.37
2017-03-22T09:17:01.694Z,26.60
2017-03-22T09:18:00.013Z,26.60
2017-03-22T09:18:58.250Z,26.62
2017-03-22T09:19:56.556Z,26.98
2017-03-22T09:21:04.196Z,26.17
2017-03-22T09:22:02.492Z,22.55
2017-03-22T09:23:00.728Z,26.57
2017-03-22T09:23:59.704Z,25.03
2017-03-22T09:24:57.921Z,24.03
2017-03-22T09:25:56.179Z,25.95
2017-03-22T09:26:54.484Z,23.90
2017-03-22T09:27:53.512Z,26.00
2017-03-22T09:28:51.740Z,25.92
2017-03-22T09:29:49.949Z,26.40
2017-03-22T09:30:48.998Z,23.52
2017-03-22T09:31:47.205Z,27.50
2017-03-22T09:32:45.421Z,25.77
2017-03-22T09:33:43.648Z,23.67
2017-03-22T09:34:42.257Z,28.32
2017-03-22T09:35:40.457Z,27.18
2017-03-22T09:36:38.705Z,25.67
2017-03-22T09:37:37.720Z,25.78
2017-03-22T09:38:35.935Z,25.70
2017-03-22T09:39:34.162Z,23.42
2017-03-22T09:40:32.364Z,25.95
2017-03-22T09:41:30.593Z,24.58
2017-03-22T09:42:28.821Z,20.82
2017-03-22T09:43:27.757Z,25.48
2017-03-22T09:44:25.965Z,25.35
2017-03-22T09:45:24.189Z,26.27
2017-03-22T09:46:23.132Z,21.33
2017-03-22T09:47:21.324Z,23.58
2017-03-22T09:48:19.569Z,19.92
2017-03-22T09:49:17.757Z,17.52
2017-03-22T09:50:15.972Z,17.92
2017-03-22T09:51:14.318Z,20.08
2017-03-22T09:52:12.549Z,17.10
2017-03-22T09:53:10.756Z,17.45
2017-03-22T09:54:08.989Z,16.77
2017-03-22T09:55:07.220Z,16.08
2017-03-22T09:56:05.444Z,17.95
2017-03-22T09:57:03.764Z,16.57
2017-03-22T09:58:02.009Z,17.20
2017-03-22T09:59:00.245Z,16.17
2017-03-22T09:59:59.261Z,16.62
2017-03-22T10:00:57.800Z,17.93
2017-03-22T10:01:56.037Z,16.82
2017-03-22T10:02:54.312Z,17.40
2017-03-22T10:03:52.620Z,17.65
2017-03-22T10:04:51.601Z,16.13
2017-03-22T10:05:49.869Z,18.78
2017-03-22T10:06:48.106Z,18.67
2017-03-22T10:07:46.349Z,16.05
2017-03-22T10:08:44.581Z,15.68
2017-03-22T10:09:42.829Z,17.80
2017-03-22T10:10:41.064Z,16.17
2017-03-22T10:11:39.301Z,17.27
2017-03-22T10:12:37.534Z,18.68
2017-03-22T10:13:35.785Z,17.20
2017-03-22T10:14:34.816Z,19.50
2017-03-22T10:15:33.064Z,17.30
2017-03-22T10:16:31.518Z,16.87
2017-03-22T10:17:29.748Z,18.02
2017-03-22T10:18:27.980Z,18.55
2017-03-22T10:19:26.212Z,17.78
2017-03-22T10:20:24.444Z,15.42
2017-03-22T10:21:22.748Z,16.47
2017-03-22T10:22:21.045Z,18.97
2017-03-22T10:23:19.304Z,18.77
2017-03-22T10:24:17.541Z,16.88
2017-03-22T10:25:15.777Z,18.78
2017-03-22T10:26:14.092Z,17.28
2017-03-22T10:27:12.345Z,18.88
2017-03-22T10:28:10.574Z,16.73
2017-03-22T10:29:08.798Z,18.07
2017-03-22T10:30:07.029Z,16.83
2017-03-22T10:31:06.000Z,17.37
2017-03-22T10:32:04.233Z,16.03
2017-03-22T10:33:02.460Z,16.98
2017-03-22T10:34:00.677Z,17.85
2017-03-22T10:34:58.901Z,15.90
2017-03-22T10:35:57.129Z,16.35
2017-03-22T10:36:55.357Z,16.28
2017-03-22T10:37:53.580Z,17.05
2017-03-22T10:38:52.520Z,16.93
2017-03-22T10:39:50.792Z,17.93
2017-03-22T10:40:49.012Z,19.60
2017-03-22T10:41:47.221Z,18.45
2017-03-22T10:42:45.437Z,16.57
2017-03-22T10:43:43.686Z,19.90
2017-03-22T10:44:42.625Z,15.90
2017-03-22T10:45:41.561Z,17.40
2017-03-22T10:46:39.770Z,14.65
2017-03-22T10:47:38.037Z,13.97
2017-03-22T10:48:36.220Z,15.70
2017-03-22T10:49:34.424Z,15.92
2017-03-22T10:50:32.673Z,13.73
2017-03-22T10:51:30.897Z,16.63
2017-03-22T10:52:29.156Z,14.42
2017-03-22T10:53:27.388Z,14.23
2017-03-22T10:54:25.600Z,12.80
2017-03-22T10:55:23.812Z,15.28
2017-03-22T10:56:22.037Z,14.13
2017-03-22T10:57:20.270Z,16.23
2017-03-22T10:58:18.481Z,14.58
2017-03-22T10:59:16.700Z,15.92
2017-03-22T11:00:14.932Z,13.87
2017-03-22T11:01:13.177Z,14.52
2017-03-22T11:02:11.381Z,19.18
2017-03-22T11:03:09.606Z,18.20
2017-03-22T11:04:07.801Z,14.72
2017-03-22T11:05:06.028Z,13.97
2017-03-22T11:06:04.248Z,13.48
2017-03-22T11:07:02.473Z,12.75
2017-03-22T11:08:01.449Z,12.35
2017-03-22T11:08:59.698Z,12.45
2017-03-22T11:09:57.897Z,13.28
2017-03-22T11:10:56.115Z,12.67
2017-03-22T11:11:54.360Z,13.23
2017-03-22T11:12:52.576Z,10.95
2017-03-22T11:13:50.804Z,11.18
2017-03-22T11:14:49.010Z,11.90
2017-03-22T11:15:47.980Z,12.07
2017-03-22T11:16:46.230Z,10.82
2017-03-22T11:17:44.432Z,10.53
2017-03-22T11:18:43.896Z,9.10
2017-03-22T11:19:42.140Z,8.93
2017-03-22T11:20:40.336Z,8.18
2017-03-22T11:21:38.516Z,8.55
2017-03-22T11:22:37.473Z,8.05
2017-03-22T11:23:35.705Z,8.37
2017-03-22T11:24:33.936Z,7.80
2017-03-22T11:25:32.129Z,7.80
2017-03-22T11:26:30.344Z,8.73
2017-03-22T11:27:28.552Z,9.12
2017-03-22T11:28:26.729Z,10.40
2017-03-22T11:29:24.956Z,10.47
2017-03-22T11:30:23.189Z,8.58
2017-03-22T11:31:21.401Z,7.95
2017-03-22T11:32:19.632Z,8.40
2017-03-22T11:33:17.849Z,7.98
2017-03-22T11:34:16.801Z,9.78
2017-03-22T11:35:15.002Z,7.80
2017-03-22T11:36:13.613Z,8.02
2017-03-22T11:37:11.836Z,9.80
2017-03-22T11:38:10.197Z,6.98
2017-03-22T11:39:08.425Z,6.85
2017-03-22T11:40:06.629Z,8.35
2017-03-22T11:41:08.992Z,8.95
2017-03-22T11:42:07.225Z,7.93
2017-03-22T11:43:05.416Z,7.63
2017-03-22T11:44:03.647Z,9.45
2017-03-22T11:45:02.652Z,8.10
2017-03-22T11:46:00.876Z,8.23
2017-03-22T11:46:59.092Z,8.12
2017-03-22T11:47:57.320Z,9.12
2017-03-22T11:48:56.288Z,9.05
2017-03-22T11:49:54.493Z,9.30
2017-03-22T11:50:52.697Z,8.07
2017-03-22T11:51:50.896Z,8.90
2017-03-22T11:52:49.103Z,7.72
2017-03-22T11:53:47.334Z,8.07
2017-03-22T11:54:45.541Z,9.15
2017-03-22T11:55:43.776Z,8.93
2017-03-22T11:56:41.998Z,8.68
2017-03-22T11:57:40.706Z,9.78
2017-03-22T11:58:39.683Z,8.03
2017-03-22T11:59:37.933Z,6.82
2017-03-22T12:00:36.189Z,7.72
2017-03-22T12:01:34.480Z,8.48
2017-03-22T12:02:32.915Z,7.33
2017-03-22T12:03:31.116Z,7.88
2017-03-22T12:04:29.348Z,6.67
2017-03-22T12:05:27.584Z,7.10
2017-03-22T12:06:25.817Z,7.20
2017-03-22T12:07:24.025Z,8.17
2017-03-22T12:08:23.605Z,6.98
2017-03-22T12:09:21.861Z,8.37
2017-03-22T12:10:20.856Z,8.63
2017-03-22T12:11:19.150Z,8.77
2017-03-22T12:12:17.416Z,7.20
2017-03-22T12:13:15.645Z,7.57
2017-03-22T12:14:14.577Z,7.27
2017-03-22T12:15:12.820Z,6.00
2017-03-22T12:16:11.085Z,7.27
2017-03-22T12:17:09.352Z,7.77
2017-03-22T12:18:07.569Z,7.43
2017-03-22T12:19:06.536Z,6.93
2017-03-22T12:20:04.838Z,6.88
2017-03-22T12:21:03.068Z,8.07
2017-03-22T12:22:01.293Z,7.28
2017-03-22T12:22:59.524Z,8.15
2017-03-22T12:23:57.730Z,7.10
2017-03-22T12:24:55.944Z,8.30
2017-03-22T12:25:54.188Z,9.13
2017-03-22T12:26:52.393Z,7.50
2017-03-22T12:27:51.348Z,7.50
2017-03-22T12:28:49.581Z,7.92
2017-03-22T12:29:47.798Z,6.78
2017-03-22T12:30:45.999Z,8.32
2017-03-22T12:31:44.198Z,8.20
2017-03-22T12:32:42.417Z,7.50
2017-03-22T12:33:40.628Z,6.57
2017-03-22T12:34:40.145Z,8.15
2017-03-22T12:35:39.101Z,7.97
2017-03-22T12:36:37.359Z,7.25
2017-03-22T12:37:35.564Z,6.95